Time;durP1;ratioP1;P1;durP2;ratioP2;P2;SDS_P1;SDS_P2;PMS_P1;PMS_P2;Temp;Humidity;BMP_temperature;BMP_pressure;BME280_temperature;BME280_humidity;BME280_pressure;Samples;Min_cycle;Max_cycle;Signal;HPM_P1;HPM_P2
2022/04/15 00:01:14;;;;;;;4.33;2.80;;;;;;;-143.37;100.00;62585.38;5037978;28;20457;-76
2022/04/15 00:03:51;;;;;;;3.30;2.33;;;;;;;-143.37;100.00;62585.38;5036772;28;20449;-76
2022/04/15 00:06:26;;;;;;;5.73;3.53;;;;;;;-143.37;100.00;62585.38;5053166;28;20487;-76
2022/04/15 00:09:06;;;;;;;4.50;2.80;;;;;;;-143.37;100.00;62585.38;5038685;28;20473;-76
2022/04/15 00:11:44;;;;;;;3.20;2.90;;;;;;;-143.37;100.00;62585.38;5053323;28;21091;-76
2022/04/15 00:14:21;;;;;;;2.93;2.40;;;;;;;-143.37;100.00;62585.38;5071151;28;20447;-76
2022/04/15 00:17:01;;;;;;;4.50;2.83;;;;;;;-143.37;100.00;62585.38;5050996;28;20529;-75
2022/04/15 00:19:37;;;;;;;3.20;2.73;;;;;;;-143.37;100.00;62585.38;5050778;28;20469;-74
2022/04/15 00:22:12;;;;;;;4.80;3.07;;;;;;;-143.37;100.00;62585.38;5047999;28;20548;-76
2022/04/15 00:24:58;;;;;;;4.30;3.20;;;;;;;-143.37;100.00;62585.38;5052634;28;20757;-75
2022/04/15 00:27:37;;;;;;;3.27;2.90;;;;;;;-143.37;100.00;62585.38;5050191;28;20430;-74
2022/04/15 00:30:13;;;;;;;3.73;3.00;;;;;;;-143.37;100.00;62585.38;5050700;28;20446;-76
2022/04/15 00:32:50;;;;;;;4.50;3.50;;;;;;;-143.37;100.00;62585.38;5051310;28;20417;-76
2022/04/15 00:35:26;;;;;;;3.93;3.57;;;;;;;-143.37;100.00;62585.38;5037322;28;20462;-76
2022/04/15 00:38:01;;;;;;;4.40;3.10;;;;;;;-143.37;100.00;62585.38;5037830;28;20444;-76
2022/04/15 00:40:37;;;;;;;5.47;3.60;;;;;;;-143.37;100.00;62585.38;5054108;28;21014;-75
2022/04/15 00:43:12;;;;;;;3.77;3.30;;;;;;;-143.37;100.00;62585.38;5051882;28;20560;-75
2022/04/15 00:45:48;;;;;;;3.60;3.30;;;;;;;-143.37;100.00;62585.38;5037769;28;20441;-75
2022/04/15 00:48:27;;;;;;;5.43;3.60;;;;;;;-143.37;100.00;62585.38;5051775;28;20433;-75
2022/04/15 00:51:05;;;;;;;5.27;2.90;;;;;;;-143.37;100.00;62585.38;5053489;28;20521;-75
2022/04/15 00:53:44;;;;;;;4.10;3.53;;;;;;;-143.37;100.00;62585.38;5033133;28;20469;-75
2022/04/15 00:56:21;;;;;;;5.90;3.23;;;;;;;-143.37;100.00;62585.38;5051210;28;20435;-75
2022/04/15 00:58:59;;;;;;;3.90;3.00;;;;;;;-143.37;100.00;62585.38;5062637;28;20458;-75
2022/04/15 01:01:38;;;;;;;4.30;3.80;;;;;;;-143.37;100.00;62585.38;5052379;28;20434;-75
2022/04/15 01:04:14;;;;;;;3.60;3.10;;;;;;;-143.37;100.00;62585.38;5037502;28;20470;-75
2022/04/15 01:06:50;;;;;;;3.90;3.03;;;;;;;-143.37;100.00;62585.38;5051711;28;20536;-75
2022/04/15 01:09:26;;;;;;;4.43;2.93;;;;;;;-143.37;100.00;62585.38;5037538;28;20809;-75
2022/04/15 01:12:07;;;;;;;3.13;2.83;;;;;;;-143.37;100.00;62585.38;5037307;28;20425;-76
2022/04/15 01:14:43;;;;;;;4.53;3.50;;;;;;;-143.37;100.00;62585.38;5048866;28;20454;-75
2022/04/15 01:17:19;;;;;;;3.40;3.10;;;;;;;-143.37;100.00;62585.38;5069047;28;20846;-75
2022/04/15 01:19:56;;;;;;;4.27;3.60;;;;;;;-143.37;100.00;62585.38;5051517;28;20474;-75
2022/04/15 01:22:33;;;;;;;3.90;3.50;;;;;;;-143.37;100.00;62585.38;5028049;28;20469;-75
2022/04/15 01:25:12;;;;;;;4.00;3.60;;;;;;;-143.37;100.00;62585.38;5050810;28;20454;-76
2022/04/15 01:27:49;;;;;;;4.30;3.20;;;;;;;-143.37;100.00;62585.38;5063554;28;20445;-75
2022/04/15 01:30:25;;;;;;;5.27;4.10;;;;;;;-143.37;100.00;62585.38;5066947;28;20454;-75
2022/04/15 01:33:03;;;;;;;3.70;3.30;;;;;;;-143.37;100.00;62585.38;5047405;28;20520;-75
2022/04/15 01:35:38;;;;;;;3.20;2.90;;;;;;;-143.37;100.00;62585.38;5044550;28;20445;-75
2022/04/15 01:38:17;;;;;;;5.30;3.80;;;;;;;-143.37;100.00;62585.38;5060818;28;20441;-75
2022/04/15 01:40:54;;;;;;;5.77;3.80;;;;;;;-143.37;100.00;62585.38;5047857;28;20525;-75
2022/04/15 01:43:29;;;;;;;4.53;4.13;;;;;;;-143.37;100.00;62585.38;5064497;28;20553;-75
2022/04/15 01:46:05;;;;;;;6.60;3.80;;;;;;;-143.37;100.00;62585.38;5044721;28;21723;-75
2022/04/15 01:48:40;;;;;;;5.13;4.50;;;;;;;-143.37;100.00;62585.38;5042194;28;20481;-76
2022/04/15 01:51:16;;;;;;;5.23;4.73;;;;;;;-143.37;100.00;62585.38;5048549;28;20437;-75
2022/04/15 01:53:53;;;;;;;4.50;4.03;;;;;;;-143.37;100.00;62585.38;5044610;28;20430;-75
2022/04/15 01:56:31;;;;;;;5.87;4.93;;;;;;;-143.37;100.00;62585.38;5042827;28;20445;-75
2022/04/15 01:59:09;;;;;;;5.20;4.20;;;;;;;-143.37;100.00;62585.38;5041700;28;20442;-76
2022/04/15 02:01:44;;;;;;;4.50;3.80;;;;;;;-143.37;100.00;62585.38;5046124;28;20431;-75
2022/04/15 02:04:20;;;;;;;5.03;4.10;;;;;;;-143.37;100.00;62585.38;5047900;28;20798;-75
2022/04/15 02:06:55;;;;;;;4.70;4.30;;;;;;;-143.37;100.00;62585.38;5045471;28;20437;-75
2022/04/15 02:09:31;;;;;;;5.17;4.37;;;;;;;-143.37;100.00;62585.38;5042648;28;20453;-75
2022/04/15 02:12:10;;;;;;;4.00;3.70;;;;;;;-143.37;100.00;62585.38;5042047;28;20426;-75
2022/04/15 02:14:46;;;;;;;4.77;4.03;;;;;;;-143.37;100.00;62585.38;5029414;28;20446;-75
2022/04/15 02:17:22;;;;;;;6.30;4.00;;;;;;;-143.37;100.00;62585.38;5043360;28;20435;-75
2022/04/15 02:19:58;;;;;;;4.70;3.70;;;;;;;-143.37;100.00;62585.38;5029600;28;20490;-75
2022/04/15 02:22:33;;;;;;;7.80;3.90;;;;;;;-143.37;100.00;62585.38;5024332;28;20545;-75
2022/04/15 02:25:10;;;;;;;5.90;3.87;;;;;;;-143.37;100.00;62585.38;5023105;28;20443;-75
2022/04/15 02:27:47;;;;;;;5.20;4.43;;;;;;;-143.37;100.00;62585.38;5021856;28;20424;-75
2022/04/15 02:30:22;;;;;;;5.37;4.53;;;;;;;-143.37;100.00;62585.38;5025228;28;20478;-76
2022/04/15 02:32:57;;;;;;;4.53;4.13;;;;;;;-143.37;100.00;62585.38;5044032;28;20469;-75
2022/04/15 02:35:33;;;;;;;4.97;4.23;;;;;;;-143.37;100.00;62585.38;5027586;28;20937;-75
2022/04/15 02:38:09;;;;;;;5.20;4.70;;;;;;;-143.37;100.00;62585.38;5027767;28;20438;-75
2022/04/15 02:40:44;;;;;;;5.13;4.30;;;;;;;-143.37;100.00;62585.38;5025953;28;20938;-76
2022/04/15 02:43:25;;;;;;;4.60;4.07;;;;;;;-143.37;100.00;62585.38;5026216;28;20517;-76
2022/04/15 02:46:01;;;;;;;5.37;4.87;;;;;;;-143.37;100.00;62585.38;5047602;28;20458;-75
2022/04/15 02:48:37;;;;;;;4.50;4.07;;;;;;;-143.37;100.00;62585.38;5030132;28;20538;-75
2022/04/15 02:51:14;;;;;;;7.20;4.60;;;;;;;-143.37;100.00;62585.38;5051459;28;20534;-75
2022/04/15 02:53:50;;;;;;;5.50;4.43;;;;;;;-143.37;100.00;62585.38;5018438;28;20458;-75
2022/04/15 02:56:25;;;;;;;6.03;4.87;;;;;;;-143.37;100.00;62585.38;5030010;28;20815;-75
2022/04/15 02:59:02;;;;;;;5.20;4.53;;;;;;;-143.37;100.00;62585.38;5030999;28;20462;-75
2022/04/15 03:01:37;;;;;;;5.10;4.57;;;;;;;-143.37;100.00;62585.38;5030899;28;20474;-75
2022/04/15 03:04:13;;;;;;;7.07;4.87;;;;;;;-143.37;100.00;62585.38;5028071;28;20468;-75
2022/04/15 03:06:49;;;;;;;5.47;4.97;;;;;;;-143.37;100.00;62585.38;5032661;28;20435;-75
2022/04/15 03:09:25;;;;;;;5.93;4.80;;;;;;;-143.37;100.00;62585.38;5015709;28;20792;-75
2022/04/15 03:12:00;;;;;;;7.07;4.50;;;;;;;-143.37;100.00;62585.38;5031286;28;20437;-76
2022/04/15 03:14:39;;;;;;;5.70;4.70;;;;;;;-143.37;100.00;62585.38;5034494;28;20851;-75
2022/04/15 03:17:14;;;;;;;6.40;4.50;;;;;;;-143.37;100.00;62585.38;5017194;28;20442;-75
2022/04/15 03:19:50;;;;;;;7.93;5.37;;;;;;;-143.37;100.00;62585.38;5017567;28;20474;-76
2022/04/15 03:22:25;;;;;;;5.33;4.77;;;;;;;-143.37;100.00;62585.38;5019675;28;20466;-75
2022/04/15 03:25:02;;;;;;;5.10;4.60;;;;;;;-143.37;100.00;62585.38;5055198;28;20480;-75
2022/04/15 03:27:38;;;;;;;5.07;4.53;;;;;;;-143.37;100.00;62585.38;5034305;28;20435;-75
2022/04/15 03:30:15;;;;;;;5.47;4.70;;;;;;;-143.37;100.00;62585.38;5045716;28;20451;-75
2022/04/15 03:32:52;;;;;;;5.13;4.53;;;;;;;-143.37;100.00;62585.38;5032147;28;20443;-75
2022/04/15 03:35:28;;;;;;;5.20;4.70;;;;;;;-143.37;100.00;62585.38;5018770;28;20460;-76
2022/04/15 03:38:05;;;;;;;7.43;4.30;;;;;;;-143.37;100.00;62585.38;5049219;28;20471;-75
2022/04/15 03:40:40;;;;;;;5.00;4.40;;;;;;;-143.37;100.00;62585.38;5033601;28;20840;-75
2022/04/15 03:43:16;;;;;;;5.57;4.33;;;;;;;-143.37;100.00;62585.38;5024931;28;20964;-75
2022/04/15 03:45:55;;;;;;;4.87;4.40;;;;;;;-143.37;100.00;62585.38;5034898;28;20430;-75
2022/04/15 03:48:30;;;;;;;5.13;4.63;;;;;;;-143.37;100.00;62585.38;5020005;28;20438;-76
2022/04/15 03:51:07;;;;;;;5.30;4.80;;;;;;;-143.37;100.00;62585.38;5034334;28;20427;-75
2022/04/15 03:53:43;;;;;;;6.40;5.43;;;;;;;-143.37;100.00;62585.38;5013734;28;20469;-75
2022/04/15 03:56:18;;;;;;;4.87;4.47;;;;;;;-143.37;100.00;62585.38;5010835;28;20458;-75
2022/04/15 03:58:58;;;;;;;5.03;4.43;;;;;;;-143.37;100.00;62585.38;5032869;28;20438;-75
2022/04/15 04:01:36;;;;;;;4.23;3.83;;;;;;;-143.37;100.00;62585.38;5034517;28;20880;-75
2022/04/15 04:04:11;;;;;;;4.77;4.27;;;;;;;-143.37;100.00;62585.38;5033540;28;20474;-75
2022/04/15 04:06:53;;;;;;;4.93;4.03;;;;;;;-143.37;100.00;62585.38;5018954;28;20530;-75
2022/04/15 04:09:40;;;;;;;8.83;5.63;;;;;;;-143.37;100.00;62585.38;5038706;28;20447;-75
2022/04/15 04:12:31;;;;;;;5.50;3.73;;;;;;;-143.37;100.00;62585.38;5032975;28;20791;-75
2022/04/15 04:15:19;;;;;;;5.30;4.30;;;;;;;-143.37;100.00;62585.38;5052542;28;20470;-75
2022/04/15 04:18:07;;;;;;;6.90;5.07;;;;;;;-143.37;100.00;62585.38;5029721;28;20441;-76
2022/04/15 04:20:43;;;;;;;5.03;4.53;;;;;;;-143.37;100.00;62585.38;5035196;28;20459;-75
2022/04/15 04:23:19;;;;;;;4.63;4.23;;;;;;;-143.37;100.00;62585.38;5030502;28;20463;-76
2022/04/15 04:25:55;;;;;;;5.50;4.90;;;;;;;-143.37;100.00;62585.38;5032617;28;20448;-75
2022/04/15 04:28:31;;;;;;;5.30;4.67;;;;;;;-143.37;100.00;62585.38;5035065;28;20446;-75
2022/04/15 04:31:17;;;;;;;5.00;4.33;;;;;;;-143.37;100.00;62585.38;5029585;28;20782;-75
2022/04/15 04:33:54;;;;;;;5.37;4.53;;;;;;;-143.37;100.00;62585.38;5048153;28;20780;-75
2022/04/15 04:36:30;;;;;;;7.00;5.03;;;;;;;-143.37;100.00;62585.38;5026660;28;20526;-75
2022/04/15 04:39:09;;;;;;;5.27;4.27;;;;;;;-143.37;100.00;62585.38;5029174;28;20454;-75
2022/04/15 04:41:44;;;;;;;6.90;5.07;;;;;;;-143.37;100.00;62585.38;5042833;28;20810;-76
2022/04/15 04:44:20;;;;;;;10.13;5.07;;;;;;;-143.37;100.00;62585.38;5041765;28;20898;-75
2022/04/15 04:46:56;;;;;;;4.90;4.40;;;;;;;-143.37;100.00;62585.38;5027646;28;20442;-75
2022/04/15 04:49:32;;;;;;;7.93;6.40;;;;;;;-143.37;100.00;62585.38;5027191;28;20474;-75
2022/04/15 04:52:08;;;;;;;6.07;5.43;;;;;;;-143.37;100.00;62585.38;5040544;28;20474;-75
2022/04/15 04:54:45;;;;;;;6.73;4.90;;;;;;;-143.37;100.00;62585.38;5035137;28;20442;-75
2022/04/15 04:57:20;;;;;;;5.97;5.17;;;;;;;-143.37;100.00;62585.38;5026656;28;20526;-76
2022/04/15 04:59:56;;;;;;;6.07;5.50;;;;;;;-143.37;100.00;62585.38;5027164;28;20945;-75
2022/04/15 05:02:33;;;;;;;8.13;5.50;;;;;;;-143.37;100.00;62585.38;5039445;28;20438;-75
2022/04/15 05:05:10;;;;;;;5.40;4.90;;;;;;;-143.37;100.00;62585.38;5025056;28;20444;-75
2022/04/15 05:07:46;;;;;;;6.77;5.33;;;;;;;-143.37;100.00;62585.38;5010576;28;20447;-75
2022/04/15 05:10:23;;;;;;;6.80;4.90;;;;;;;-143.37;100.00;62585.38;5029477;28;20450;-75
2022/04/15 05:12:59;;;;;;;7.30;5.70;;;;;;;-143.37;100.00;62585.38;5026366;28;20435;-76
2022/04/15 05:15:37;;;;;;;5.57;4.97;;;;;;;-143.37;100.00;62585.38;5024760;28;20450;-75
2022/04/15 05:18:12;;;;;;;6.80;5.63;;;;;;;-143.37;100.00;62585.38;5018730;28;20885;-75
2022/04/15 05:20:49;;;;;;;7.50;6.77;;;;;;;-143.37;100.00;62585.38;5063485;28;20512;-75
2022/04/15 05:23:25;;;;;;;6.23;5.63;;;;;;;-143.37;100.00;62585.38;5046254;28;20473;-76
2022/04/15 05:26:00;;;;;;;7.27;5.30;;;;;;;-143.37;100.00;62585.38;5041939;28;20437;-75
2022/04/15 05:28:36;;;;;;;5.87;5.27;;;;;;;-143.37;100.00;62585.38;5061165;28;20438;-76
2022/04/15 05:31:12;;;;;;;7.10;6.33;;;;;;;-143.37;100.00;62585.38;5061243;28;20446;-75
2022/04/15 05:33:48;;;;;;;6.87;6.20;;;;;;;-143.37;100.00;62585.38;5063131;28;20473;-75
2022/04/15 05:36:25;;;;;;;6.90;5.73;;;;;;;-143.37;100.00;62585.38;5060292;28;20439;-75
2022/04/15 05:39:01;;;;;;;6.10;5.50;;;;;;;-143.37;100.00;62585.38;5060798;28;20807;-75
2022/04/15 05:41:36;;;;;;;6.43;5.80;;;;;;;-143.37;100.00;62585.38;5067771;28;20433;-75
2022/04/15 05:44:13;;;;;;;8.67;7.17;;;;;;;-143.37;100.00;62585.38;5080096;28;20468;-76
2022/04/15 05:46:49;;;;;;;9.80;7.90;;;;;;;-143.37;100.00;62585.38;5065054;28;20446;-75
2022/04/15 05:49:25;;;;;;;8.13;7.10;;;;;;;-143.37;100.00;62585.38;5065126;28;20454;-75
2022/04/15 05:52:02;;;;;;;10.30;7.60;;;;;;;-143.37;100.00;62585.38;5053715;28;20445;-75
2022/04/15 05:54:38;;;;;;;7.73;6.93;;;;;;;-143.37;100.00;62585.38;5067283;28;20481;-76
2022/04/15 05:57:13;;;;;;;9.70;8.60;;;;;;;-143.37;100.00;62585.38;5036602;28;20429;-76
2022/04/15 05:59:49;;;;;;;9.23;7.07;;;;;;;-143.37;100.00;62585.38;5033069;28;20941;-75
2022/04/15 06:02:25;;;;;;;9.50;7.97;;;;;;;-143.37;100.00;62585.38;5050191;28;20454;-75
2022/04/15 06:05:02;;;;;;;10.67;8.83;;;;;;;-143.37;100.00;62585.38;5050498;28;20469;-75
2022/04/15 06:07:40;;;;;;;10.23;8.33;;;;;;;-143.37;100.00;62585.38;5028901;28;20520;-76
2022/04/15 06:10:17;;;;;;;10.00;8.30;;;;;;;-143.37;100.00;62585.38;5041262;28;20442;-75
2022/04/15 06:12:57;;;;;;;9.80;8.53;;;;;;;-143.37;100.00;62585.38;5045860;28;20433;-76
2022/04/15 06:15:34;;;;;;;10.97;7.60;;;;;;;-143.37;100.00;62585.38;5059854;28;20450;-76
2022/04/15 06:18:09;;;;;;;10.20;7.90;;;;;;;-143.37;100.00;62585.38;5060602;28;20430;-76
2022/04/15 06:20:45;;;;;;;8.87;7.73;;;;;;;-143.37;100.00;62585.38;5027108;28;20461;-75
2022/04/15 06:23:22;;;;;;;8.60;7.77;;;;;;;-143.37;100.00;62585.38;5047857;28;20467;-76
2022/04/15 06:26:00;;;;;;;8.67;7.53;;;;;;;-143.37;100.00;62585.38;5028779;28;20457;-76
2022/04/15 06:28:37;;;;;;;9.60;8.60;;;;;;;-143.37;100.00;62585.38;5041900;28;20786;-76
2022/04/15 06:31:12;;;;;;;10.40;7.80;;;;;;;-143.37;100.00;62585.38;5057376;28;20447;-75
2022/04/15 06:33:50;;;;;;;7.17;6.40;;;;;;;-143.37;100.00;62585.38;5041129;28;20533;-75
2022/04/15 06:36:25;;;;;;;10.63;8.70;;;;;;;-143.37;100.00;62585.38;5045103;28;20437;-76
2022/04/15 06:39:02;;;;;;;8.77;7.53;;;;;;;-143.37;100.00;62585.38;5058591;28;20437;-75
2022/04/15 06:41:39;;;;;;;8.40;7.50;;;;;;;-143.37;100.00;62585.38;5045900;28;20443;-76
2022/04/15 06:44:15;;;;;;;11.57;9.10;;;;;;;-143.37;100.00;62585.38;5044523;28;20845;-75
2022/04/15 06:46:51;;;;;;;9.53;8.53;;;;;;;-143.37;100.00;62585.38;5025701;28;20454;-76
2022/04/15 06:50:16;;;;;;;10.03;8.53;;;;;;;-143.37;100.00;62585.38;5036299;28;20450;-76
2022/04/15 06:52:51;;;;;;;10.23;8.83;;;;;;;-143.37;100.00;62585.38;5062973;28;20439;-76
2022/04/15 06:55:28;;;;;;;11.90;9.80;;;;;;;-143.37;100.00;62585.38;5032568;28;20442;-76
2022/04/15 06:58:06;;;;;;;11.23;10.00;;;;;;;-143.37;100.00;62585.38;5044137;28;20465;-75
2022/04/15 07:00:41;;;;;;;10.43;9.43;;;;;;;-143.37;100.00;62585.38;5046995;28;20955;-76
2022/04/15 07:03:17;;;;;;;9.00;8.10;;;;;;;-143.37;100.00;62585.38;5033091;28;20445;-76
2022/04/15 07:05:53;;;;;;;9.67;8.50;;;;;;;-143.37;100.00;62585.38;5048696;28;20450;-76
2022/04/15 07:08:28;;;;;;;10.20;9.20;;;;;;;-143.37;100.00;62585.38;5064960;28;20539;-76
2022/04/15 07:11:06;;;;;;;10.80;9.30;;;;;;;-143.37;100.00;62585.38;5045663;28;20437;-76
2022/04/15 07:13:42;;;;;;;10.50;9.40;;;;;;;-143.37;100.00;62585.38;5048904;28;20616;-76
2022/04/15 07:16:17;;;;;;;11.50;10.23;;;;;;;-143.37;100.00;62585.38;5033748;28;20943;-76
2022/04/15 07:18:55;;;;;;;9.10;8.20;;;;;;;-143.37;100.00;62585.38;5030135;28;20461;-76
2022/04/15 07:21:30;;;;;;;12.93;9.27;;;;;;;-143.37;100.00;62585.38;5052449;28;20441;-76
2022/04/15 07:24:07;;;;;;;9.77;8.77;;;;;;;-143.37;100.00;62585.38;5034503;28;20470;-76
2022/04/15 07:26:47;;;;;;;10.10;9.10;;;;;;;-143.37;100.00;62585.38;5036659;28;20532;-76
2022/04/15 07:29:25;;;;;;;10.33;9.33;;;;;;;-143.37;100.00;62585.38;5050496;28;20533;-77
2022/04/15 07:32:00;;;;;;;12.13;9.73;;;;;;;-143.37;100.00;62585.38;5031072;28;20520;-75
2022/04/15 07:34:37;;;;;;;13.40;9.77;;;;;;;-143.37;100.00;62585.38;5048872;28;20442;-75
2022/04/15 07:37:13;;;;;;;11.53;10.33;;;;;;;-143.37;100.00;62585.38;5050063;28;20778;-75
2022/04/15 07:39:49;;;;;;;11.03;9.90;;;;;;;-143.37;100.00;62585.38;5050287;28;20842;-75
2022/04/15 07:42:26;;;;;;;9.53;8.40;;;;;;;-143.37;100.00;62585.38;5050595;28;20437;-75
2022/04/15 07:45:06;;;;;;;9.97;9.00;;;;;;;-143.37;100.00;62585.38;5035535;28;20504;-76
2022/04/15 07:47:43;;;;;;;11.53;10.23;;;;;;;-143.37;100.00;62585.38;5052389;28;20435;-76
2022/04/15 07:50:22;;;;;;;16.37;11.40;;;;;;;-143.37;100.00;62585.38;5050841;28;20445;-76
2022/04/15 07:52:59;;;;;;;10.43;9.43;;;;;;;-143.37;100.00;62585.38;5043182;28;20481;-76
2022/04/15 07:55:35;;;;;;;13.63;12.33;;;;;;;-143.37;100.00;62585.38;5048326;28;20787;-76
2022/04/15 07:58:12;;;;;;;12.33;11.13;;;;;;;-143.37;100.00;62585.38;5036402;28;20474;-76
2022/04/15 08:00:47;;;;;;;12.77;9.83;;;;;;;-143.37;100.00;62585.38;5049711;28;20791;-76
2022/04/15 08:03:23;;;;;;;11.47;9.73;;;;;;;-143.37;100.00;62585.38;5047014;28;20435;-76
2022/04/15 08:05:59;;;;;;;13.60;10.70;;;;;;;-143.37;100.00;62585.38;5050453;28;20442;-77
2022/04/15 08:08:40;;;;;;;13.70;12.37;;;;;;;-143.37;100.00;62585.38;5042468;28;20439;-76
2022/04/15 08:11:16;;;;;;;11.70;10.50;;;;;;;-143.37;100.00;62585.38;5044850;28;20443;-77
2022/04/15 08:13:55;;;;;;;12.63;11.33;;;;;;;-143.37;100.00;62585.38;5045201;28;20426;-77
2022/04/15 08:16:31;;;;;;;12.47;11.27;;;;;;;-143.37;100.00;62585.38;5060137;28;20477;-77
2022/04/15 08:19:06;;;;;;;11.90;10.80;;;;;;;-143.37;100.00;62585.38;5051279;28;20485;-77
2022/04/15 08:21:42;;;;;;;12.67;10.93;;;;;;;-143.37;100.00;62585.38;5043303;28;20437;-77
2022/04/15 08:24:22;;;;;;;14.30;12.90;;;;;;;-143.37;100.00;62585.38;5052751;28;20803;-77
2022/04/15 08:26:57;;;;;;;13.60;12.20;;;;;;;-143.37;100.00;62585.38;5046290;28;20589;-76
2022/04/15 08:29:38;;;;;;;15.40;13.87;;;;;;;-143.37;100.00;62585.38;5045282;28;20986;-77
2022/04/15 08:32:14;;;;;;;14.97;13.27;;;;;;;-143.37;100.00;62585.38;5045639;28;20443;-74
2022/04/15 08:34:49;;;;;;;14.60;13.13;;;;;;;-143.37;100.00;62585.38;5045628;28;20451;-74
2022/04/15 08:37:25;;;;;;;14.97;13.40;;;;;;;-143.37;100.00;62585.38;5045698;28;20445;-77
2022/04/15 08:40:01;;;;;;;15.70;14.00;;;;;;;-143.37;100.00;62585.38;5058896;28;20485;-77
2022/04/15 08:42:37;;;;;;;17.67;16.00;;;;;;;-143.37;100.00;62585.38;5042739;28;20450;-77
2022/04/15 08:45:14;;;;;;;16.10;14.50;;;;;;;-143.37;100.00;62585.38;5046546;28;20486;-74
2022/04/15 08:47:49;;;;;;;16.87;15.20;;;;;;;-143.37;100.00;62585.38;5048024;28;20442;-74
2022/04/15 08:50:25;;;;;;;16.63;14.90;;;;;;;-143.37;100.00;62585.38;5060802;28;20779;-75
2022/04/15 08:53:03;;;;;;;15.47;13.97;;;;;;;-143.37;100.00;62585.38;5045596;28;20469;-75
2022/04/15 08:55:40;;;;;;;17.90;16.03;;;;;;;-143.37;100.00;62585.38;5072222;28;20493;-75
2022/04/15 09:01:00;;;;;;;19.30;17.40;;;;;;;-143.37;100.00;62585.38;5066533;28;20555;-75
2022/04/15 09:03:37;;;;;;;17.00;15.40;;;;;;;-143.37;100.00;62585.38;5068406;28;20465;-74
2022/04/15 09:06:17;;;;;;;17.63;15.07;;;;;;;-143.37;100.00;62585.38;5058726;28;20442;-75
2022/04/15 09:09:00;;;;;;;16.23;14.63;;;;;;;-143.37;100.00;62585.38;5060134;28;20433;-75
2022/04/15 09:11:39;;;;;;;17.70;16.00;;;;;;;-143.37;100.00;62585.38;5071731;28;20847;-74
2022/04/15 09:14:15;;;;;;;16.30;14.70;;;;;;;-143.37;100.00;62585.38;5060158;28;20452;-74
2022/04/15 09:16:52;;;;;;;18.10;16.20;;;;;;;-143.37;100.00;62585.38;5051771;28;20942;-74
2022/04/15 09:19:35;;;;;;;16.67;15.13;;;;;;;-143.37;100.00;62585.38;5065709;28;20511;-74
2022/04/15 09:22:18;;;;;;;17.90;16.10;;;;;;;-143.37;100.00;62585.38;5071168;28;20543;-74
2022/04/15 09:24:53;;;;;;;18.20;16.40;;;;;;;-143.37;100.00;62585.38;5064431;28;20461;-74
2022/04/15 09:27:29;;;;;;;19.10;17.13;;;;;;;-143.37;100.00;62585.38;5052225;28;20811;-74
2022/04/15 09:30:06;;;;;;;19.50;17.70;;;;;;;-143.37;100.00;62585.38;5065515;28;20453;-74
2022/04/15 09:32:44;;;;;;;21.20;18.90;;;;;;;-143.37;100.00;62585.38;5063404;28;20727;-75
2022/04/15 09:35:19;;;;;;;19.37;17.47;;;;;;;-143.37;100.00;62585.38;5065720;28;20454;-74
2022/04/15 09:38:01;;;;;;;20.03;18.10;;;;;;;-143.37;100.00;62585.38;5068509;28;20452;-76
2022/04/15 09:40:37;;;;;;;18.57;16.67;;;;;;;-143.37;100.00;62585.38;5057776;28;20433;-74
2022/04/15 09:43:13;;;;;;;19.17;17.37;;;;;;;-143.37;100.00;62585.38;5062616;28;20445;-74
2022/04/15 09:45:51;;;;;;;21.27;18.97;;;;;;;-143.37;100.00;62585.38;5063574;28;20564;-76
2022/04/15 09:48:29;;;;;;;21.60;19.60;;;;;;;-143.37;100.00;62585.38;5065747;28;20456;-76
2022/04/15 09:51:04;;;;;;;18.87;16.97;;;;;;;-143.37;100.00;62585.38;5064163;28;20835;-76
2022/04/15 09:53:40;;;;;;;18.73;16.50;;;;;;;-143.37;100.00;62585.38;5064359;28;20878;-76
2022/04/15 09:56:16;;;;;;;18.20;16.40;;;;;;;-143.37;100.00;62585.38;5045720;28;21003;-76
2022/04/15 09:58:54;;;;;;;19.87;17.77;;;;;;;-143.37;100.00;62585.38;5060715;28;20437;-76
2022/04/15 10:01:32;;;;;;;18.47;16.60;;;;;;;-143.37;100.00;62585.38;5064518;28;20482;-76
2022/04/15 10:04:11;;;;;;;21.97;19.30;;;;;;;-143.37;100.00;62585.38;5066293;28;20425;-76
2022/04/15 10:06:50;;;;;;;19.03;17.03;;;;;;;-143.37;100.00;62585.38;5063674;28;20453;-76
2022/04/15 10:09:27;;;;;;;19.87;17.87;;;;;;;-143.37;100.00;62585.38;5040206;28;20849;-76
2022/04/15 10:12:07;;;;;;;18.30;16.40;;;;;;;-143.37;100.00;62585.38;5064243;28;20451;-77
2022/04/15 10:14:46;;;;;;;16.20;14.50;;;;;;;-143.37;100.00;62585.38;5065540;28;20437;-77
2022/04/15 10:17:22;;;;;;;16.57;14.87;;;;;;;-143.37;100.00;62585.38;5055422;28;20493;-76
2022/04/15 10:20:00;;;;;;;18.60;16.80;;;;;;;-143.37;100.00;62585.38;5063247;28;20775;-76
2022/04/15 10:22:37;;;;;;;17.50;15.70;;;;;;;-143.37;100.00;62585.38;5063739;28;20531;-77
2022/04/15 10:25:13;;;;;;;16.07;14.43;;;;;;;-143.37;100.00;62585.38;5065238;28;20489;-76
2022/04/15 10:27:50;;;;;;;15.80;14.30;;;;;;;-143.37;100.00;62585.38;5043567;28;20846;-76
2022/04/15 10:30:25;;;;;;;16.73;14.97;;;;;;;-143.37;100.00;62585.38;5070653;28;20461;-76
2022/04/15 10:33:01;;;;;;;16.60;14.90;;;;;;;-143.37;100.00;62585.38;5066522;28;20436;-77
2022/04/15 10:35:59;;;;;;;16.70;15.00;;;;;;;-143.37;100.00;62585.38;5068571;28;20843;-76
2022/04/15 10:38:38;;;;;;;17.77;16.07;;;;;;;-143.37;100.00;62585.38;5069546;28;20445;-76
2022/04/15 10:41:14;;;;;;;15.80;14.30;;;;;;;-143.37;100.00;62585.38;5067230;28;20437;-76
2022/04/15 10:43:56;;;;;;;16.93;15.23;;;;;;;-143.37;100.00;62585.38;5065564;28;20498;-77
2022/04/15 10:46:35;;;;;;;13.47;12.17;;;;;;;-143.37;100.00;62585.38;5057746;28;20464;-76
2022/04/15 10:49:23;;;;;;;15.97;14.40;;;;;;;-143.37;100.00;62585.38;5069124;28;20448;-74
2022/04/15 10:52:01;;;;;;;14.93;13.43;;;;;;;-143.37;100.00;62585.38;5057942;28;20456;-76
2022/04/15 10:54:45;;;;;;;13.57;12.27;;;;;;;-143.37;100.00;62585.38;5051727;28;20881;-76
2022/04/15 10:57:22;;;;;;;16.00;14.50;;;;;;;-143.37;100.00;62585.38;5049800;28;20967;-76
2022/04/15 11:02:52;;;;;;;14.10;11.80;;;;;;;-143.37;100.00;62585.38;5070605;28;20494;-77
2022/04/15 11:05:35;;;;;;;14.10;12.70;;;;;;;-143.37;100.00;62585.38;5071850;28;21026;-76
2022/04/15 11:08:13;;;;;;;12.70;11.40;;;;;;;-143.37;100.00;62585.38;5070606;28;20440;-76
2022/04/15 11:11:03;;;;;;;15.23;13.83;;;;;;;-143.37;100.00;62585.38;5069167;28;20907;-76
2022/04/15 11:14:00;;;;;;;14.77;13.33;;;;;;;-143.37;100.00;62585.38;5068053;28;20429;-77
2022/04/15 11:16:40;;;;;;;14.20;12.70;;;;;;;-143.37;100.00;62585.38;5072251;28;20446;-76
2022/04/15 11:19:19;;;;;;;13.60;12.20;;;;;;;-143.37;100.00;62585.38;5054522;28;20441;-76
2022/04/15 11:21:55;;;;;;;13.63;12.33;;;;;;;-143.37;100.00;62585.38;5087675;28;20451;-76
2022/04/15 11:24:36;;;;;;;13.80;12.40;;;;;;;-143.37;100.00;62585.38;5065611;28;20444;-76
2022/04/15 11:27:15;;;;;;;10.43;9.43;;;;;;;-143.37;100.00;62585.38;5053135;28;20446;-77
2022/04/15 11:29:51;;;;;;;9.43;8.50;;;;;;;-143.37;100.00;62585.38;5062380;28;21451;-76
2022/04/15 11:32:27;;;;;;;11.70;10.60;;;;;;;-143.37;100.00;62585.38;5068722;28;20451;-76
2022/04/15 11:35:08;;;;;;;11.77;10.53;;;;;;;-143.37;100.00;62585.38;5069410;28;20950;-77
2022/04/15 11:37:44;;;;;;;10.20;9.13;;;;;;;-143.37;100.00;62585.38;5054765;28;20437;-76
2022/04/15 11:40:21;;;;;;;13.70;12.40;;;;;;;-143.37;100.00;62585.38;5068931;28;20481;-76
2022/04/15 11:42:58;;;;;;;12.70;11.40;;;;;;;-143.37;100.00;62585.38;5063856;28;20450;-76
2022/04/15 11:45:36;;;;;;;11.50;10.40;;;;;;;-143.37;100.00;62585.38;5069398;28;20492;-76
2022/04/15 11:48:19;;;;;;;12.93;11.67;;;;;;;-143.37;100.00;62585.38;5069686;28;20440;-76
2022/04/15 11:50:57;;;;;;;11.90;10.80;;;;;;;-143.37;100.00;62585.38;5055203;28;20531;-76
2022/04/15 11:53:35;;;;;;;12.93;11.60;;;;;;;-143.37;100.00;62585.38;5065747;28;20459;-76
2022/04/15 11:56:11;;;;;;;12.40;11.30;;;;;;;-143.37;100.00;62585.38;5067732;28;20429;-76